sensor_id;sensor_type;location;lat;lon;timestamp;P1;durP1;ratioP1;P2;durP2;ratioP2
82412;SDS011;72056;51.980;15.436;2023-08-17T00:02:16;11.95;;;5.32;;
82412;SDS011;72056;51.980;15.436;2023-08-17T00:04:43;14.32;;;6.72;;
82412;SDS011;72056;51.980;15.436;2023-08-17T00:07:08;11.43;;;6.30;;
82412;SDS011;72056;51.980;15.436;2023-08-17T00:09:34;12.27;;;5.68;;
82412;SDS011;72056;51.980;15.436;2023-08-17T00:11:59;14.10;;;7.30;;
82412;SDS011;72056;51.980;15.436;2023-08-17T00:14:25;14.15;;;5.82;;
82412;SDS011;72056;51.980;15.436;2023-08-17T00:16:51;11.45;;;6.40;;
82412;SDS011;72056;51.980;15.436;2023-08-17T00:19:17;12.48;;;6.90;;
82412;SDS011;72056;51.980;15.436;2023-08-17T00:21:46;13.75;;;6.28;;
82412;SDS011;72056;51.980;15.436;2023-08-17T00:24:12;12.82;;;6.15;;
82412;SDS011;72056;51.980;15.436;2023-08-17T00:26:38;11.02;;;6.93;;
82412;SDS011;72056;51.980;15.436;2023-08-17T00:29:04;13.60;;;7.65;;
82412;SDS011;72056;51.980;15.436;2023-08-17T00:31:29;14.10;;;6.37;;
82412;SDS011;72056;51.980;15.436;2023-08-17T00:33:56;14.13;;;7.47;;
82412;SDS011;72056;51.980;15.436;2023-08-17T00:36:22;10.25;;;5.43;;
82412;SDS011;72056;51.980;15.436;2023-08-17T00:38:48;12.52;;;6.45;;
82412;SDS011;72056;51.980;15.436;2023-08-17T00:41:14;11.88;;;6.35;;
82412;SDS011;72056;51.980;15.436;2023-08-17T00:43:40;12.75;;;6.47;;
82412;SDS011;72056;51.980;15.436;2023-08-17T00:46:06;11.73;;;6.65;;
82412;SDS011;72056;51.980;15.436;2023-08-17T00:48:31;13.18;;;6.15;;
82412;SDS011;72056;51.980;15.436;2023-08-17T00:50:56;11.37;;;5.73;;
82412;SDS011;72056;51.980;15.436;2023-08-17T00:53:23;12.48;;;7.30;;
82412;SDS011;72056;51.980;15.436;2023-08-17T00:55:49;12.20;;;6.30;;
82412;SDS011;72056;51.980;15.436;2023-08-17T00:58:15;10.82;;;6.90;;
82412;SDS011;72056;51.980;15.436;2023-08-17T01:00:42;10.75;;;6.90;;
82412;SDS011;72056;51.980;15.436;2023-08-17T01:03:07;10.75;;;6.95;;
82412;SDS011;72056;51.980;15.436;2023-08-17T01:05:34;11.80;;;7.32;;
82412;SDS011;72056;51.980;15.436;2023-08-17T01:07:59;14.20;;;7.22;;
82412;SDS011;72056;51.980;15.436;2023-08-17T01:13:15;13.75;;;6.85;;
82412;SDS011;72056;51.980;15.436;2023-08-17T01:15:49;12.13;;;6.07;;
82412;SDS011;72056;51.980;15.436;2023-08-17T01:20:48;13.18;;;6.80;;
82412;SDS011;72056;51.980;15.436;2023-08-17T01:23:13;11.65;;;7.15;;
82412;SDS011;72056;51.980;15.436;2023-08-17T01:25:39;11.80;;;7.43;;
82412;SDS011;72056;51.980;15.436;2023-08-17T01:28:05;13.35;;;7.15;;
82412;SDS011;72056;51.980;15.436;2023-08-17T01:30:38;13.88;;;7.47;;
82412;SDS011;72056;51.980;15.436;2023-08-17T01:36:11;10.95;;;6.35;;
82412;SDS011;72056;51.980;15.436;2023-08-17T01:38:38;11.90;;;6.28;;
82412;SDS011;72056;51.980;15.436;2023-08-17T01:41:05;11.13;;;6.32;;
82412;SDS011;72056;51.980;15.436;2023-08-17T01:43:31;11.48;;;7.15;;
82412;SDS011;72056;51.980;15.436;2023-08-17T01:45:57;8.73;;;5.55;;
82412;SDS011;72056;51.980;15.436;2023-08-17T01:48:22;9.23;;;6.05;;
82412;SDS011;72056;51.980;15.436;2023-08-17T01:50:49;9.48;;;5.47;;
82412;SDS011;72056;51.980;15.436;2023-08-17T01:53:15;10.33;;;6.03;;
82412;SDS011;72056;51.980;15.436;2023-08-17T01:55:40;10.60;;;5.53;;
82412;SDS011;72056;51.980;15.436;2023-08-17T01:58:06;9.63;;;5.68;;
82412;SDS011;72056;51.980;15.436;2023-08-17T02:00:32;10.50;;;6.35;;
82412;SDS011;72056;51.980;15.436;2023-08-17T02:02:58;10.52;;;5.65;;
82412;SDS011;72056;51.980;15.436;2023-08-17T02:05:24;11.55;;;6.30;;
82412;SDS011;72056;51.980;15.436;2023-08-17T02:07:53;12.50;;;6.05;;
82412;SDS011;72056;51.980;15.436;2023-08-17T02:10:18;13.68;;;7.28;;
82412;SDS011;72056;51.980;15.436;2023-08-17T02:12:44;9.88;;;6.22;;
82412;SDS011;72056;51.980;15.436;2023-08-17T02:15:09;11.07;;;6.60;;
82412;SDS011;72056;51.980;15.436;2023-08-17T02:17:35;13.65;;;8.07;;
82412;SDS011;72056;51.980;15.436;2023-08-17T02:20:01;11.00;;;6.57;;
82412;SDS011;72056;51.980;15.436;2023-08-17T02:22:27;11.77;;;8.20;;
82412;SDS011;72056;51.980;15.436;2023-08-17T02:24:53;11.20;;;7.18;;
82412;SDS011;72056;51.980;15.436;2023-08-17T02:27:18;14.23;;;9.25;;
82412;SDS011;72056;51.980;15.436;2023-08-17T02:29:44;10.35;;;7.10;;
82412;SDS011;72056;51.980;15.436;2023-08-17T02:32:10;11.43;;;7.72;;
82412;SDS011;72056;51.980;15.436;2023-08-17T02:34:35;14.30;;;7.82;;
82412;SDS011;72056;51.980;15.436;2023-08-17T02:37:01;15.07;;;9.30;;
82412;SDS011;72056;51.980;15.436;2023-08-17T02:39:26;14.68;;;8.73;;
82412;SDS011;72056;51.980;15.436;2023-08-17T02:41:52;12.13;;;8.45;;
82412;SDS011;72056;51.980;15.436;2023-08-17T02:44:20;12.15;;;8.63;;
82412;SDS011;72056;51.980;15.436;2023-08-17T02:46:45;12.73;;;6.93;;
82412;SDS011;72056;51.980;15.436;2023-08-17T02:49:11;12.50;;;8.02;;
82412;SDS011;72056;51.980;15.436;2023-08-17T02:51:36;12.38;;;8.75;;
82412;SDS011;72056;51.980;15.436;2023-08-17T02:54:01;10.67;;;7.20;;
82412;SDS011;72056;51.980;15.436;2023-08-17T02:56:27;14.02;;;8.13;;
82412;SDS011;72056;51.980;15.436;2023-08-17T02:58:53;11.38;;;8.02;;
82412;SDS011;72056;51.980;15.436;2023-08-17T03:01:18;12.13;;;8.00;;
82412;SDS011;72056;51.980;15.436;2023-08-17T03:03:43;14.90;;;8.70;;
82412;SDS011;72056;51.980;15.436;2023-08-17T03:06:09;14.38;;;8.07;;
82412;SDS011;72056;51.980;15.436;2023-08-17T03:08:35;14.50;;;9.32;;
82412;SDS011;72056;51.980;15.436;2023-08-17T03:11:00;11.55;;;8.38;;
82412;SDS011;72056;51.980;15.436;2023-08-17T03:13:26;12.00;;;7.80;;
82412;SDS011;72056;51.980;15.436;2023-08-17T03:15:52;13.95;;;9.27;;
82412;SDS011;72056;51.980;15.436;2023-08-17T03:18:17;13.37;;;9.03;;
82412;SDS011;72056;51.980;15.436;2023-08-17T03:20:44;14.13;;;9.15;;
82412;SDS011;72056;51.980;15.436;2023-08-17T03:23:09;12.02;;;7.40;;
82412;SDS011;72056;51.980;15.436;2023-08-17T03:25:35;12.45;;;8.02;;
82412;SDS011;72056;51.980;15.436;2023-08-17T03:28:01;12.10;;;7.85;;
82412;SDS011;72056;51.980;15.436;2023-08-17T03:30:26;10.75;;;7.15;;
82412;SDS011;72056;51.980;15.436;2023-08-17T03:32:53;12.50;;;8.57;;
82412;SDS011;72056;51.980;15.436;2023-08-17T03:35:19;12.80;;;8.50;;
82412;SDS011;72056;51.980;15.436;2023-08-17T03:37:44;13.10;;;8.23;;
82412;SDS011;72056;51.980;15.436;2023-08-17T03:40:10;12.63;;;7.85;;
82412;SDS011;72056;51.980;15.436;2023-08-17T03:42:36;13.35;;;8.18;;
82412;SDS011;72056;51.980;15.436;2023-08-17T03:45:02;11.63;;;7.53;;
82412;SDS011;72056;51.980;15.436;2023-08-17T03:47:28;15.15;;;9.55;;
82412;SDS011;72056;51.980;15.436;2023-08-17T03:49:53;11.10;;;7.88;;
82412;SDS011;72056;51.980;15.436;2023-08-17T03:52:19;12.68;;;8.60;;
82412;SDS011;72056;51.980;15.436;2023-08-17T03:54:44;14.03;;;9.47;;
82412;SDS011;72056;51.980;15.436;2023-08-17T03:57:10;15.02;;;9.75;;
82412;SDS011;72056;51.980;15.436;2023-08-17T03:59:36;12.73;;;7.75;;
82412;SDS011;72056;51.980;15.436;2023-08-17T04:02:01;11.77;;;7.82;;
82412;SDS011;72056;51.980;15.436;2023-08-17T04:04:27;11.93;;;8.23;;
82412;SDS011;72056;51.980;15.436;2023-08-17T04:06:52;15.07;;;8.85;;
82412;SDS011;72056;51.980;15.436;2023-08-17T04:09:18;13.20;;;8.98;;
82412;SDS011;72056;51.980;15.436;2023-08-17T04:11:44;12.18;;;8.38;;
82412;SDS011;72056;51.980;15.436;2023-08-17T04:14:10;13.55;;;8.80;;
82412;SDS011;72056;51.980;15.436;2023-08-17T04:16:35;12.10;;;7.85;;
82412;SDS011;72056;51.980;15.436;2023-08-17T04:19:01;14.35;;;8.60;;
82412;SDS011;72056;51.980;15.436;2023-08-17T04:21:26;11.93;;;8.47;;
82412;SDS011;72056;51.980;15.436;2023-08-17T04:23:52;13.25;;;9.02;;
82412;SDS011;72056;51.980;15.436;2023-08-17T04:26:17;13.27;;;8.98;;
82412;SDS011;72056;51.980;15.436;2023-08-17T04:28:43;12.80;;;8.68;;
82412;SDS011;72056;51.980;15.436;2023-08-17T04:31:09;12.38;;;8.45;;
82412;SDS011;72056;51.980;15.436;2023-08-17T04:33:35;14.15;;;8.45;;
82412;SDS011;72056;51.980;15.436;2023-08-17T04:36:00;12.70;;;8.48;;
82412;SDS011;72056;51.980;15.436;2023-08-17T04:38:26;11.45;;;7.90;;
82412;SDS011;72056;51.980;15.436;2023-08-17T04:40:51;11.85;;;7.68;;
82412;SDS011;72056;51.980;15.436;2023-08-17T04:43:16;12.43;;;8.30;;
82412;SDS011;72056;51.980;15.436;2023-08-17T04:45:44;12.18;;;8.93;;
82412;SDS011;72056;51.980;15.436;2023-08-17T04:48:12;15.77;;;8.82;;
82412;SDS011;72056;51.980;15.436;2023-08-17T04:50:38;14.60;;;9.88;;
82412;SDS011;72056;51.980;15.436;2023-08-17T04:53:03;13.20;;;9.18;;
82412;SDS011;72056;51.980;15.436;2023-08-17T04:55:29;13.73;;;8.75;;
82412;SDS011;72056;51.980;15.436;2023-08-17T04:57:56;13.27;;;9.30;;
82412;SDS011;72056;51.980;15.436;2023-08-17T05:00:22;14.90;;;10.23;;
82412;SDS011;72056;51.980;15.436;2023-08-17T05:05:18;14.85;;;8.23;;
82412;SDS011;72056;51.980;15.436;2023-08-17T05:07:43;12.35;;;8.02;;
82412;SDS011;72056;51.980;15.436;2023-08-17T05:10:09;12.07;;;8.25;;
82412;SDS011;72056;51.980;15.436;2023-08-17T05:12:35;14.52;;;9.68;;
82412;SDS011;72056;51.980;15.436;2023-08-17T05:15:00;14.13;;;9.10;;
82412;SDS011;72056;51.980;15.436;2023-08-17T05:17:26;12.90;;;8.27;;
82412;SDS011;72056;51.980;15.436;2023-08-17T05:19:51;14.57;;;9.35;;
82412;SDS011;72056;51.980;15.436;2023-08-17T05:22:17;12.15;;;8.52;;
82412;SDS011;72056;51.980;15.436;2023-08-17T05:24:44;13.00;;;7.97;;
82412;SDS011;72056;51.980;15.436;2023-08-17T05:27:10;16.33;;;10.13;;
82412;SDS011;72056;51.980;15.436;2023-08-17T05:29:35;13.95;;;9.70;;
82412;SDS011;72056;51.980;15.436;2023-08-17T05:32:01;12.45;;;8.45;;
82412;SDS011;72056;51.980;15.436;2023-08-17T05:34:27;13.63;;;9.30;;
82412;SDS011;72056;51.980;15.436;2023-08-17T05:36:52;14.30;;;9.60;;
82412;SDS011;72056;51.980;15.436;2023-08-17T05:39:17;14.13;;;9.00;;
82412;SDS011;72056;51.980;15.436;2023-08-17T05:41:43;15.57;;;9.52;;
82412;SDS011;72056;51.980;15.436;2023-08-17T05:44:08;13.00;;;8.70;;
82412;SDS011;72056;51.980;15.436;2023-08-17T05:46:34;13.35;;;9.02;;
82412;SDS011;72056;51.980;15.436;2023-08-17T05:49:01;13.25;;;8.90;;
82412;SDS011;72056;51.980;15.436;2023-08-17T05:51:26;11.98;;;8.98;;
82412;SDS011;72056;51.980;15.436;2023-08-17T05:53:52;15.13;;;10.80;;
82412;SDS011;72056;51.980;15.436;2023-08-17T05:56:17;15.35;;;9.80;;
82412;SDS011;72056;51.980;15.436;2023-08-17T05:58:43;13.35;;;10.50;;
82412;SDS011;72056;51.980;15.436;2023-08-17T06:01:09;14.10;;;11.27;;
82412;SDS011;72056;51.980;15.436;2023-08-17T06:03:35;14.95;;;11.40;;
82412;SDS011;72056;51.980;15.436;2023-08-17T06:06:01;15.15;;;9.50;;
82412;SDS011;72056;51.980;15.436;2023-08-17T06:08:26;12.15;;;8.88;;
82412;SDS011;72056;51.980;15.436;2023-08-17T06:10:52;13.30;;;9.05;;
82412;SDS011;72056;51.980;15.436;2023-08-17T06:13:18;11.55;;;8.80;;
82412;SDS011;72056;51.980;15.436;2023-08-17T06:15:43;14.43;;;10.20;;
82412;SDS011;72056;51.980;15.436;2023-08-17T06:18:13;15.02;;;10.80;;
82412;SDS011;72056;51.980;15.436;2023-08-17T06:20:39;16.33;;;11.55;;
82412;SDS011;72056;51.980;15.436;2023-08-17T06:23:04;12.83;;;10.10;;
82412;SDS011;72056;51.980;15.436;2023-08-17T06:25:30;15.00;;;10.60;;
82412;SDS011;72056;51.980;15.436;2023-08-17T06:27:56;11.73;;;9.05;;
82412;SDS011;72056;51.980;15.436;2023-08-17T06:30:22;15.85;;;10.88;;
82412;SDS011;72056;51.980;15.436;2023-08-17T06:32:47;12.35;;;9.63;;
82412;SDS011;72056;51.980;15.436;2023-08-17T06:35:13;12.50;;;9.60;;
82412;SDS011;72056;51.980;15.436;2023-08-17T06:37:38;15.27;;;10.98;;
82412;SDS011;72056;51.980;15.436;2023-08-17T06:40:04;13.80;;;9.57;;
82412;SDS011;72056;51.980;15.436;2023-08-17T06:42:31;14.30;;;8.88;;
82412;SDS011;72056;51.980;15.436;2023-08-17T06:44:56;12.45;;;8.50;;
82412;SDS011;72056;51.980;15.436;2023-08-17T06:47:22;12.88;;;8.60;;
82412;SDS011;72056;51.980;15.436;2023-08-17T06:49:47;11.37;;;7.97;;
82412;SDS011;72056;51.980;15.436;2023-08-17T06:52:13;9.95;;;7.35;;
82412;SDS011;72056;51.980;15.436;2023-08-17T06:54:40;10.75;;;8.02;;
82412;SDS011;72056;51.980;15.436;2023-08-17T06:57:06;10.95;;;7.55;;
82412;SDS011;72056;51.980;15.436;2023-08-17T06:59:31;11.45;;;8.00;;
82412;SDS011;72056;51.980;15.436;2023-08-17T07:01:58;10.60;;;6.68;;
82412;SDS011;72056;51.980;15.436;2023-08-17T07:04:24;9.43;;;6.25;;
82412;SDS011;72056;51.980;15.436;2023-08-17T07:06:50;9.75;;;7.35;;
82412;SDS011;72056;51.980;15.436;2023-08-17T07:09:16;11.73;;;6.15;;
82412;SDS011;72056;51.980;15.436;2023-08-17T07:11:46;9.38;;;6.10;;
82412;SDS011;72056;51.980;15.436;2023-08-17T07:14:12;9.43;;;5.60;;
82412;SDS011;72056;51.980;15.436;2023-08-17T07:16:37;7.73;;;5.43;;
82412;SDS011;72056;51.980;15.436;2023-08-17T07:19:03;9.00;;;6.28;;
82412;SDS011;72056;51.980;15.436;2023-08-17T07:21:29;11.27;;;7.18;;
82412;SDS011;72056;51.980;15.436;2023-08-17T07:23:55;10.07;;;6.97;;
82412;SDS011;72056;51.980;15.436;2023-08-17T07:26:20;9.82;;;6.53;;
82412;SDS011;72056;51.980;15.436;2023-08-17T07:28:46;8.88;;;6.40;;
82412;SDS011;72056;51.980;15.436;2023-08-17T07:31:12;9.52;;;6.85;;
82412;SDS011;72056;51.980;15.436;2023-08-17T07:33:38;10.18;;;6.15;;
82412;SDS011;72056;51.980;15.436;2023-08-17T07:36:03;8.52;;;5.80;;
82412;SDS011;72056;51.980;15.436;2023-08-17T07:38:29;9.52;;;5.88;;
82412;SDS011;72056;51.980;15.436;2023-08-17T07:40:55;9.65;;;6.78;;
82412;SDS011;72056;51.980;15.436;2023-08-17T07:43:21;9.82;;;5.88;;
82412;SDS011;72056;51.980;15.436;2023-08-17T07:45:54;10.32;;;5.95;;
82412;SDS011;72056;51.980;15.436;2023-08-17T07:48:19;7.00;;;4.78;;
82412;SDS011;72056;51.980;15.436;2023-08-17T07:50:47;10.47;;;5.13;;
82412;SDS011;72056;51.980;15.436;2023-08-17T07:53:12;8.10;;;5.03;;
82412;SDS011;72056;51.980;15.436;2023-08-17T07:55:38;6.60;;;4.80;;
82412;SDS011;72056;51.980;15.436;2023-08-17T07:58:04;6.38;;;4.47;;
82412;SDS011;72056;51.980;15.436;2023-08-17T08:00:31;7.72;;;4.68;;
82412;SDS011;72056;51.980;15.436;2023-08-17T08:02:57;7.03;;;4.80;;
82412;SDS011;72056;51.980;15.436;2023-08-17T08:05:23;6.75;;;4.70;;
82412;SDS011;72056;51.980;15.436;2023-08-17T08:07:49;7.47;;;4.80;;
82412;SDS011;72056;51.980;15.436;2023-08-17T08:10:15;7.10;;;4.70;;
82412;SDS011;72056;51.980;15.436;2023-08-17T08:12:42;8.20;;;5.32;;
82412;SDS011;72056;51.980;15.436;2023-08-17T08:15:08;8.02;;;4.90;;
82412;SDS011;72056;51.980;15.436;2023-08-17T08:17:33;7.85;;;5.45;;
82412;SDS011;72056;51.980;15.436;2023-08-17T08:19:59;7.35;;;4.82;;
82412;SDS011;72056;51.980;15.436;2023-08-17T08:22:24;6.85;;;5.05;;
82412;SDS011;72056;51.980;15.436;2023-08-17T08:24:50;7.70;;;5.30;;
82412;SDS011;72056;51.980;15.436;2023-08-17T08:27:16;7.20;;;4.60;;
82412;SDS011;72056;51.980;15.436;2023-08-17T08:29:41;6.80;;;4.22;;
82412;SDS011;72056;51.980;15.436;2023-08-17T08:32:07;8.20;;;4.60;;
82412;SDS011;72056;51.980;15.436;2023-08-17T08:34:33;6.70;;;4.78;;
82412;SDS011;72056;51.980;15.436;2023-08-17T08:36:58;6.60;;;4.13;;
82412;SDS011;72056;51.980;15.436;2023-08-17T08:39:27;8.13;;;4.80;;
82412;SDS011;72056;51.980;15.436;2023-08-17T08:41:53;7.55;;;4.78;;
82412;SDS011;72056;51.980;15.436;2023-08-17T08:44:19;7.00;;;4.65;;
82412;SDS011;72056;51.980;15.436;2023-08-17T08:46:44;6.78;;;4.50;;
82412;SDS011;72056;51.980;15.436;2023-08-17T08:49:10;7.78;;;4.60;;
82412;SDS011;72056;51.980;15.436;2023-08-17T08:51:37;8.07;;;4.80;;
82412;SDS011;72056;51.980;15.436;2023-08-17T08:54:02;6.78;;;5.00;;
82412;SDS011;72056;51.980;15.436;2023-08-17T08:56:33;7.40;;;5.03;;
82412;SDS011;72056;51.980;15.436;2023-08-17T08:59:01;6.88;;;4.53;;
82412;SDS011;72056;51.980;15.436;2023-08-17T09:01:26;9.27;;;5.75;;
82412;SDS011;72056;51.980;15.436;2023-08-17T09:03:52;7.80;;;5.32;;
82412;SDS011;72056;51.980;15.436;2023-08-17T09:06:18;8.15;;;4.90;;
82412;SDS011;72056;51.980;15.436;2023-08-17T09:08:44;7.25;;;5.32;;
82412;SDS011;72056;51.980;15.436;2023-08-17T09:11:10;8.45;;;5.65;;
82412;SDS011;72056;51.980;15.436;2023-08-17T09:13:35;7.70;;;5.15;;
82412;SDS011;72056;51.980;15.436;2023-08-17T09:16:01;8.18;;;5.68;;
82412;SDS011;72056;51.980;15.436;2023-08-17T09:18:28;7.75;;;5.30;;
82412;SDS011;72056;51.980;15.436;2023-08-17T09:20:54;6.95;;;4.93;;
82412;SDS011;72056;51.980;15.436;2023-08-17T09:23:20;8.48;;;4.70;;
82412;SDS011;72056;51.980;15.436;2023-08-17T09:25:46;8.05;;;4.80;;
82412;SDS011;72056;51.980;15.436;2023-08-17T09:28:13;7.22;;;4.60;;
82412;SDS011;72056;51.980;15.436;2023-08-17T09:33:17;8.45;;;5.07;;
82412;SDS011;72056;51.980;15.436;2023-08-17T09:35:43;7.40;;;4.28;;
82412;SDS011;72056;51.980;15.436;2023-08-17T09:38:08;7.47;;;4.80;;
82412;SDS011;72056;51.980;15.436;2023-08-17T09:40:34;7.93;;;4.40;;
82412;SDS011;72056;51.980;15.436;2023-08-17T09:43:01;8.10;;;4.45;;
82412;SDS011;72056;51.980;15.436;2023-08-17T09:45:28;7.32;;;4.97;;
82412;SDS011;72056;51.980;15.436;2023-08-17T09:47:54;7.50;;;4.68;;
82412;SDS011;72056;51.980;15.436;2023-08-17T09:50:23;9.43;;;5.07;;
82412;SDS011;72056;51.980;15.436;2023-08-17T09:52:52;7.80;;;4.70;;
82412;SDS011;72056;51.980;15.436;2023-08-17T09:55:18;6.85;;;4.75;;
82412;SDS011;72056;51.980;15.436;2023-08-17T09:57:43;6.93;;;4.93;;
82412;SDS011;72056;51.980;15.436;2023-08-17T10:00:09;7.20;;;5.18;;
82412;SDS011;72056;51.980;15.436;2023-08-17T10:02:36;8.50;;;4.80;;
82412;SDS011;72056;51.980;15.436;2023-08-17T10:05:03;7.57;;;4.68;;
82412;SDS011;72056;51.980;15.436;2023-08-17T10:07:30;6.68;;;4.53;;
82412;SDS011;72056;51.980;15.436;2023-08-17T10:09:58;7.68;;;5.80;;
82412;SDS011;72056;51.980;15.436;2023-08-17T10:12:27;7.80;;;5.35;;
82412;SDS011;72056;51.980;15.436;2023-08-17T10:14:59;8.93;;;6.32;;
82412;SDS011;72056;51.980;15.436;2023-08-17T10:17:29;8.60;;;6.03;;
82412;SDS011;72056;51.980;15.436;2023-08-17T10:19:58;7.88;;;6.03;;
82412;SDS011;72056;51.980;15.436;2023-08-17T10:22:38;7.90;;;6.03;;
82412;SDS011;72056;51.980;15.436;2023-08-17T10:25:07;7.07;;;4.70;;
82412;SDS011;72056;51.980;15.436;2023-08-17T10:27:36;8.40;;;5.00;;
82412;SDS011;72056;51.980;15.436;2023-08-17T10:30:02;7.10;;;4.97;;
82412;SDS011;72056;51.980;15.436;2023-08-17T10:32:27;7.70;;;4.88;;
82412;SDS011;72056;51.980;15.436;2023-08-17T10:34:54;8.05;;;5.25;;
82412;SDS011;72056;51.980;15.436;2023-08-17T10:37:20;8.45;;;5.20;;
82412;SDS011;72056;51.980;15.436;2023-08-17T10:39:47;7.88;;;4.43;;
82412;SDS011;72056;51.980;15.436;2023-08-17T10:42:13;8.65;;;5.30;;
82412;SDS011;72056;51.980;15.436;2023-08-17T10:44:39;9.15;;;5.20;;
82412;SDS011;72056;51.980;15.436;2023-08-17T10:47:23;7.32;;;4.93;;
82412;SDS011;72056;51.980;15.436;2023-08-17T10:50:03;7.35;;;5.15;;
82412;SDS011;72056;51.980;15.436;2023-08-17T10:52:29;7.47;;;5.10;;
82412;SDS011;72056;51.980;15.436;2023-08-17T10:55:08;7.25;;;5.25;;
82412;SDS011;72056;51.980;15.436;2023-08-17T10:57:36;7.32;;;5.30;;
82412;SDS011;72056;51.980;15.436;2023-08-17T11:02:34;6.30;;;4.45;;
82412;SDS011;72056;51.980;15.436;2023-08-17T11:05:00;7.50;;;4.57;;
82412;SDS011;72056;51.980;15.436;2023-08-17T11:07:26;7.38;;;4.78;;
82412;SDS011;72056;51.980;15.436;2023-08-17T11:09:53;8.27;;;4.93;;
82412;SDS011;72056;51.980;15.436;2023-08-17T11:12:25;6.70;;;4.38;;
82412;SDS011;72056;51.980;15.436;2023-08-17T11:14:50;7.22;;;4.68;;
82412;SDS011;72056;51.980;15.436;2023-08-17T11:17:15;6.93;;;4.35;;
82412;SDS011;72056;51.980;15.436;2023-08-17T11:19:41;8.10;;;5.05;;
82412;SDS011;72056;51.980;15.436;2023-08-17T11:22:07;7.88;;;4.65;;
82412;SDS011;72056;51.980;15.436;2023-08-17T11:24:34;7.22;;;4.78;;
82412;SDS011;72056;51.980;15.436;2023-08-17T11:27:04;6.82;;;4.43;;
82412;SDS011;72056;51.980;15.436;2023-08-17T11:29:31;7.25;;;4.68;;
82412;SDS011;72056;51.980;15.436;2023-08-17T11:31:57;7.05;;;4.05;;
82412;SDS011;72056;51.980;15.436;2023-08-17T11:34:23;6.15;;;4.55;;
82412;SDS011;72056;51.980;15.436;2023-08-17T11:36:49;6.65;;;4.00;;
82412;SDS011;72056;51.980;15.436;2023-08-17T11:39:14;7.60;;;4.87;;
82412;SDS011;72056;51.980;15.436;2023-08-17T11:41:40;7.43;;;4.97;;
82412;SDS011;72056;51.980;15.436;2023-08-17T11:44:07;6.50;;;4.28;;
82412;SDS011;72056;51.980;15.436;2023-08-17T11:46:32;6.75;;;4.55;;
82412;SDS011;72056;51.980;15.436;2023-08-17T11:48:59;11.00;;;5.10;;
82412;SDS011;72056;51.980;15.436;2023-08-17T11:51:30;6.80;;;4.57;;
82412;SDS011;72056;51.980;15.436;2023-08-17T11:53:58;7.18;;;4.75;;
82412;SDS011;72056;51.980;15.436;2023-08-17T11:56:24;7.68;;;4.75;;
82412;SDS011;72056;51.980;15.436;2023-08-17T11:58:50;7.28;;;4.65;;
82412;SDS011;72056;51.980;15.436;2023-08-17T12:01:15;7.72;;;5.13;;
82412;SDS011;72056;51.980;15.436;2023-08-17T12:03:42;7.95;;;4.45;;
82412;SDS011;72056;51.980;15.436;2023-08-17T12:06:08;5.88;;;4.20;;
82412;SDS011;72056;51.980;15.436;2023-08-17T12:08:33;7.43;;;5.18;;
82412;SDS011;72056;51.980;15.436;2023-08-17T12:10:59;8.07;;;4.70;;
82412;SDS011;72056;51.980;15.436;2023-08-17T12:13:34;7.00;;;4.25;;
82412;SDS011;72056;51.980;15.436;2023-08-17T12:16:00;7.38;;;5.50;;
82412;SDS011;72056;51.980;15.436;2023-08-17T12:18:25;7.30;;;5.10;;
82412;SDS011;72056;51.980;15.436;2023-08-17T12:20:52;8.73;;;4.88;;
82412;SDS011;72056;51.980;15.436;2023-08-17T12:23:18;7.60;;;5.07;;
82412;SDS011;72056;51.980;15.436;2023-08-17T12:25:44;6.25;;;4.68;;
82412;SDS011;72056;51.980;15.436;2023-08-17T12:28:11;7.13;;;5.20;;
82412;SDS011;72056;51.980;15.436;2023-08-17T12:30:37;7.40;;;4.97;;
82412;SDS011;72056;51.980;15.436;2023-08-17T12:33:02;7.75;;;4.70;;
82412;SDS011;72056;51.980;15.436;2023-08-17T12:35:29;8.18;;;5.20;;
82412;SDS011;72056;51.980;15.436;2023-08-17T12:37:55;7.32;;;4.75;;
82412;SDS011;72056;51.980;15.436;2023-08-17T12:40:21;7.20;;;4.43;;
82412;SDS011;72056;51.980;15.436;2023-08-17T12:42:46;6.72;;;4.25;;
82412;SDS011;72056;51.980;15.436;2023-08-17T12:45:12;6.30;;;4.32;;
82412;SDS011;72056;51.980;15.436;2023-08-17T12:47:37;7.10;;;4.83;;
82412;SDS011;72056;51.980;15.436;2023-08-17T12:50:03;6.70;;;4.40;;
82412;SDS011;72056;51.980;15.436;2023-08-17T12:52:29;7.82;;;4.30;;
82412;SDS011;72056;51.980;15.436;2023-08-17T12:54:55;17.67;;;8.55;;
82412;SDS011;72056;51.980;15.436;2023-08-17T12:57:21;7.72;;;5.22;;
82412;SDS011;72056;51.980;15.436;2023-08-17T12:59:46;7.33;;;4.80;;
82412;SDS011;72056;51.980;15.436;2023-08-17T13:02:11;8.23;;;4.95;;
82412;SDS011;72056;51.980;15.436;2023-08-17T13:04:36;9.33;;;5.63;;
82412;SDS011;72056;51.980;15.436;2023-08-17T13:07:02;7.32;;;4.75;;
82412;SDS011;72056;51.980;15.436;2023-08-17T13:09:28;7.28;;;5.03;;
82412;SDS011;72056;51.980;15.436;2023-08-17T13:11:54;6.40;;;4.70;;
82412;SDS011;72056;51.980;15.436;2023-08-17T13:14:24;6.63;;;4.70;;
82412;SDS011;72056;51.980;15.436;2023-08-17T13:16:50;7.82;;;5.28;;
82412;SDS011;72056;51.980;15.436;2023-08-17T13:19:15;7.40;;;4.68;;
82412;SDS011;72056;51.980;15.436;2023-08-17T13:21:41;7.80;;;5.22;;
82412;SDS011;72056;51.980;15.436;2023-08-17T13:24:07;5.88;;;4.10;;
82412;SDS011;72056;51.980;15.436;2023-08-17T13:26:32;7.00;;;4.85;;
82412;SDS011;72056;51.980;15.436;2023-08-17T13:28:57;10.90;;;6.67;;
82412;SDS011;72056;51.980;15.436;2023-08-17T13:31:23;6.85;;;4.50;;
82412;SDS011;72056;51.980;15.436;2023-08-17T13:33:48;6.95;;;4.32;;
82412;SDS011;72056;51.980;15.436;2023-08-17T13:36:14;6.50;;;4.20;;
82412;SDS011;72056;51.980;15.436;2023-08-17T13:38:39;5.97;;;4.07;;
82412;SDS011;72056;51.980;15.436;2023-08-17T13:41:05;5.95;;;4.25;;
82412;SDS011;72056;51.980;15.436;2023-08-17T13:43:30;6.97;;;4.50;;
82412;SDS011;72056;51.980;15.436;2023-08-17T13:45:56;6.82;;;4.38;;
82412;SDS011;72056;51.980;15.436;2023-08-17T13:48:22;7.15;;;4.65;;
82412;SDS011;72056;51.980;15.436;2023-08-17T13:50:51;6.90;;;4.90;;
82412;SDS011;72056;51.980;15.436;2023-08-17T13:53:17;6.85;;;5.00;;
82412;SDS011;72056;51.980;15.436;2023-08-17T13:55:42;6.35;;;4.95;;
82412;SDS011;72056;51.980;15.436;2023-08-17T13:58:08;6.47;;;4.20;;
82412;SDS011;72056;51.980;15.436;2023-08-17T14:00:35;7.30;;;4.50;;
82412;SDS011;72056;51.980;15.436;2023-08-17T14:03:01;7.00;;;4.55;;
82412;SDS011;72056;51.980;15.436;2023-08-17T14:05:27;6.45;;;4.75;;
82412;SDS011;72056;51.980;15.436;2023-08-17T14:07:53;6.88;;;4.50;;
82412;SDS011;72056;51.980;15.436;2023-08-17T14:10:20;5.78;;;3.88;;
82412;SDS011;72056;51.980;15.436;2023-08-17T14:12:45;6.97;;;4.15;;
82412;SDS011;72056;51.980;15.436;2023-08-17T14:15:12;7.20;;;4.95;;
82412;SDS011;72056;51.980;15.436;2023-08-17T14:17:39;6.90;;;4.28;;
82412;SDS011;72056;51.980;15.436;2023-08-17T14:20:05;6.43;;;4.45;;
82412;SDS011;72056;51.980;15.436;2023-08-17T14:22:31;6.60;;;4.90;;
82412;SDS011;72056;51.980;15.436;2023-08-17T14:24:57;6.45;;;4.43;;
82412;SDS011;72056;51.980;15.436;2023-08-17T14:27:22;8.05;;;4.72;;
82412;SDS011;72056;51.980;15.436;2023-08-17T14:29:48;6.47;;;4.90;;
82412;SDS011;72056;51.980;15.436;2023-08-17T14:32:14;6.40;;;4.65;;
82412;SDS011;72056;51.980;15.436;2023-08-17T14:34:40;6.50;;;4.05;;
82412;SDS011;72056;51.980;15.436;2023-08-17T14:37:05;6.15;;;4.78;;
82412;SDS011;72056;51.980;15.436;2023-08-17T14:39:31;7.18;;;4.57;;